createdAt,value
2023-04-05T00:00:49.304Z,18.90
2023-04-05T00:03:21.829Z,13.25
2023-04-05T00:05:52.420Z,18.45
2023-04-05T00:08:26.886Z,17.83
2023-04-05T00:10:56.610Z,13.05
2023-04-05T00:13:24.167Z,18.55
2023-04-05T00:15:57.274Z,17.35
2023-04-05T00:18:25.375Z,20.55
2023-04-05T00:20:55.033Z,18.38
2023-04-05T00:23:23.180Z,16.45
2023-04-05T00:25:50.536Z,16.67
2023-04-05T00:28:17.541Z,16.40
2023-04-05T00:33:39.488Z,17.30
2023-04-05T00:36:18.157Z,17.95
2023-04-05T00:38:46.353Z,17.92
2023-04-05T00:41:14.241Z,17.10
2023-04-05T00:43:42.297Z,16.67
2023-04-05T00:46:09.959Z,13.07
2023-04-05T00:48:38.183Z,16.23
2023-04-05T00:51:09.497Z,15.23
2023-04-05T00:53:40.981Z,13.07
2023-04-05T00:56:08.533Z,14.68
2023-04-05T00:58:35.681Z,15.73
2023-04-05T01:01:21.038Z,19.58
2023-04-05T01:04:03.089Z,15.18
2023-04-05T01:06:35.228Z,18.27
2023-04-05T01:09:13.988Z,15.77
2023-04-05T01:11:43.534Z,13.55
2023-04-05T01:14:10.678Z,13.60
2023-04-05T01:16:39.158Z,15.68
2023-04-05T01:19:06.132Z,19.70
2023-04-05T01:21:38.837Z,18.77
2023-04-05T01:24:30.990Z,15.82
2023-04-05T01:27:39.138Z,18.55
2023-04-05T01:30:40.242Z,17.35
2023-04-05T01:33:21.769Z,15.00
2023-04-05T01:35:58.751Z,15.02
2023-04-05T01:38:28.365Z,14.90
2023-04-05T01:40:55.499Z,17.73
2023-04-05T01:43:22.831Z,14.73
2023-04-05T01:45:49.792Z,15.38
2023-04-05T01:48:16.767Z,18.60
2023-04-05T01:50:44.210Z,13.68
2023-04-05T01:53:11.287Z,15.00
2023-04-05T01:55:38.315Z,15.00
2023-04-05T01:58:05.910Z,15.10
2023-04-05T02:00:32.845Z,12.77
2023-04-05T02:03:00.025Z,11.07
2023-04-05T02:05:27.171Z,14.25
2023-04-05T02:07:56.741Z,16.17
2023-04-05T02:10:24.778Z,15.80
2023-04-05T02:12:52.007Z,14.18
2023-04-05T02:15:18.856Z,14.93
2023-04-05T02:17:46.031Z,12.90
2023-04-05T02:20:14.923Z,17.05
2023-04-05T02:22:45.766Z,13.45
2023-04-05T02:25:13.360Z,13.02
2023-04-05T02:27:41.356Z,13.02
2023-04-05T02:30:08.822Z,14.48
2023-04-05T02:32:36.170Z,12.90
2023-04-05T02:35:03.469Z,12.05
2023-04-05T02:37:30.487Z,12.85
2023-04-05T02:39:57.678Z,14.73
2023-04-05T02:42:24.861Z,12.85
2023-04-05T02:44:55.289Z,12.43
2023-04-05T02:47:22.582Z,17.02
2023-04-05T02:49:50.003Z,12.32
2023-04-05T02:52:17.643Z,13.80
2023-04-05T02:54:44.888Z,17.75
2023-04-05T02:57:12.214Z,11.52
2023-04-05T02:59:39.798Z,16.83
2023-04-05T03:02:07.550Z,10.82
2023-04-05T03:04:34.932Z,13.32
2023-04-05T03:07:05.696Z,11.95
2023-04-05T03:09:34.006Z,12.95
2023-04-05T03:12:05.049Z,11.30
2023-04-05T03:14:32.637Z,11.88
2023-04-05T03:16:59.446Z,19.05
2023-04-05T03:19:27.310Z,11.43
2023-04-05T03:21:54.171Z,11.65
2023-04-05T03:24:21.479Z,12.80
2023-04-05T03:26:50.086Z,11.23
2023-04-05T03:29:17.947Z,11.18
2023-04-05T03:31:45.910Z,15.63
2023-04-05T03:34:13.399Z,12.60
2023-04-05T03:36:43.123Z,12.52
2023-04-05T03:39:11.015Z,11.63
2023-04-05T03:41:38.786Z,13.75
2023-04-05T03:44:06.803Z,17.00
2023-04-05T03:46:34.243Z,15.98
2023-04-05T03:49:02.485Z,14.10
2023-04-05T03:51:29.743Z,18.38
2023-04-05T03:53:57.067Z,15.85
2023-04-05T03:56:23.923Z,15.45
2023-04-05T03:58:53.627Z,18.73
2023-04-05T04:01:20.842Z,17.40
2023-04-05T04:03:47.800Z,17.20
2023-04-05T04:06:17.032Z,17.13
2023-04-05T04:08:45.627Z,13.32
2023-04-05T04:11:14.977Z,13.95
2023-04-05T04:13:42.132Z,21.13
2023-04-05T04:16:11.394Z,22.60
2023-04-05T04:18:38.728Z,21.83
2023-04-05T04:21:07.083Z,16.15
2023-04-05T04:23:34.953Z,16.02
2023-04-05T04:26:03.124Z,20.27
2023-04-05T04:28:33.122Z,15.85
2023-04-05T04:31:04.743Z,14.30
2023-04-05T04:33:31.648Z,16.30
2023-04-05T04:35:58.544Z,14.85
2023-04-05T04:38:26.212Z,21.13
2023-04-05T04:40:55.754Z,17.35
2023-04-05T04:43:26.873Z,14.20
2023-04-05T04:45:59.191Z,12.43
2023-04-05T04:48:26.097Z,12.00
2023-04-05T04:50:53.459Z,16.52
2023-04-05T04:53:24.106Z,15.82
2023-04-05T04:55:51.697Z,13.32
2023-04-05T04:58:18.757Z,13.90
2023-04-05T05:00:46.028Z,15.45
2023-04-05T05:03:13.735Z,12.43
2023-04-05T05:05:45.511Z,12.70
2023-04-05T05:08:12.761Z,12.55
2023-04-05T05:10:40.208Z,11.43
2023-04-05T05:13:07.714Z,11.98
2023-04-05T05:15:34.890Z,13.02
2023-04-05T05:18:01.867Z,12.48
2023-04-05T05:20:29.097Z,13.98
2023-04-05T05:22:56.143Z,19.88
2023-04-05T05:25:23.003Z,11.15
2023-04-05T05:27:53.658Z,12.75
2023-04-05T05:30:21.047Z,12.38
2023-04-05T05:32:49.062Z,12.20
2023-04-05T05:35:16.414Z,11.50
2023-04-05T05:37:43.287Z,12.15
2023-04-05T05:40:13.597Z,12.77
2023-04-05T05:42:41.282Z,12.80
2023-04-05T05:45:09.293Z,12.30
2023-04-05T05:47:37.379Z,12.57
2023-04-05T05:50:05.436Z,9.93
2023-04-05T05:52:34.891Z,12.48
2023-04-05T05:55:02.739Z,12.98
2023-04-05T05:57:29.601Z,16.17
2023-04-05T05:59:57.822Z,17.15
2023-04-05T06:02:25.261Z,14.23
2023-04-05T06:04:52.513Z,20.17
2023-04-05T06:07:19.428Z,12.65
2023-04-05T06:09:47.670Z,18.65
2023-04-05T06:12:14.588Z,15.98
2023-04-05T06:14:41.792Z,16.60
2023-04-05T06:17:09.126Z,18.15
2023-04-05T06:19:36.028Z,13.23
2023-04-05T06:22:03.135Z,14.73
2023-04-05T06:24:32.212Z,13.82
2023-04-05T06:27:01.305Z,16.40
2023-04-05T06:29:28.557Z,20.02
2023-04-05T06:31:55.687Z,13.35
2023-04-05T06:34:22.808Z,19.98
2023-04-05T06:36:50.306Z,14.18
2023-04-05T06:39:17.244Z,19.20
2023-04-05T06:41:44.053Z,16.27
2023-04-05T06:44:11.019Z,17.83
2023-04-05T06:46:38.141Z,21.52
2023-04-05T06:49:05.270Z,16.35
2023-04-05T06:51:32.323Z,16.33
2023-04-05T06:53:59.305Z,14.77
2023-04-05T06:56:26.779Z,18.35
2023-04-05T06:58:54.189Z,16.63
2023-04-05T07:01:21.453Z,16.35
2023-04-05T07:03:48.387Z,15.55
2023-04-05T07:06:15.856Z,18.73
2023-04-05T07:08:42.916Z,16.35
2023-04-05T07:11:09.926Z,15.82
2023-04-05T07:16:06.989Z,17.02
2023-04-05T07:18:33.872Z,15.15
2023-04-05T07:21:00.869Z,17.23
2023-04-05T07:23:28.671Z,11.73
2023-04-05T07:25:59.219Z,13.00
2023-04-05T07:28:26.270Z,12.48
2023-04-05T07:30:53.425Z,16.10
2023-04-05T07:33:21.040Z,13.35
2023-04-05T07:35:57.071Z,14.73
2023-04-05T07:38:24.226Z,16.17
2023-04-05T07:40:51.579Z,13.10
2023-04-05T07:43:19.048Z,12.68
2023-04-05T07:45:46.431Z,12.70
2023-04-05T07:48:13.416Z,15.68
2023-04-05T07:50:41.402Z,11.75
2023-04-05T07:53:08.532Z,11.85
2023-04-05T07:55:38.466Z,13.38
2023-04-05T07:58:05.670Z,9.68
2023-04-05T08:00:32.549Z,8.38
2023-04-05T08:03:02.116Z,14.57
2023-04-05T08:05:29.574Z,10.30
2023-04-05T08:07:58.546Z,8.02
2023-04-05T08:10:26.299Z,12.00
2023-04-05T08:12:53.586Z,12.10
2023-04-05T08:15:21.118Z,10.05
2023-04-05T08:17:48.000Z,6.38
2023-04-05T08:20:14.841Z,9.15
2023-04-05T08:22:41.670Z,10.38
2023-04-05T08:25:10.096Z,8.80
2023-04-05T08:27:36.899Z,6.30
2023-04-05T08:30:04.239Z,9.45
2023-04-05T08:32:32.395Z,13.52
2023-04-05T08:34:59.313Z,6.07
2023-04-05T08:37:29.167Z,13.07
2023-04-05T08:39:55.976Z,8.27
2023-04-05T08:42:46.555Z,10.75
2023-04-05T08:45:18.122Z,6.97
2023-04-05T08:47:46.578Z,7.88
2023-04-05T08:50:14.305Z,7.30
2023-04-05T08:52:43.197Z,12.85
2023-04-05T08:55:11.446Z,7.10
2023-04-05T08:57:42.597Z,8.90
2023-04-05T09:00:10.490Z,11.20
2023-04-05T09:02:38.390Z,7.38
2023-04-05T09:05:09.471Z,9.60
2023-04-05T09:07:37.568Z,9.52
2023-04-05T09:10:06.707Z,6.40
2023-04-05T09:12:35.985Z,8.20
2023-04-05T09:15:03.078Z,8.20
2023-04-05T13:13:50.838Z,9.82
2023-04-05T13:16:17.675Z,7.25
2023-04-05T13:18:44.875Z,9.38
2023-04-05T13:21:12.007Z,8.77
2023-04-05T13:23:40.186Z,8.32
2023-04-05T13:26:07.388Z,7.05
2023-04-05T13:28:34.635Z,8.80
2023-04-05T13:31:02.980Z,9.32
2023-04-05T13:33:29.877Z,10.13
2023-04-05T13:35:57.050Z,11.05
2023-04-05T13:38:23.894Z,8.32
2023-04-05T13:40:50.828Z,9.02
2023-04-05T13:43:18.025Z,7.53
2023-04-05T13:45:44.809Z,7.65
2023-04-05T13:48:11.966Z,10.02
2023-04-05T13:50:38.915Z,7.00
2023-04-05T13:53:06.121Z,6.95
2023-04-05T13:55:32.967Z,9.20
2023-04-05T13:58:00.048Z,10.05
2023-04-05T14:00:27.268Z,11.13
2023-04-05T14:02:54.623Z,10.95
2023-04-05T14:05:21.750Z,9.98
2023-04-05T14:07:50.616Z,8.30
2023-04-05T14:10:17.826Z,10.38
2023-04-05T14:12:44.883Z,8.90
2023-04-05T14:15:12.134Z,9.93
2023-04-05T14:17:39.067Z,11.18
2023-04-05T14:20:06.958Z,8.50
2023-04-05T14:22:34.390Z,9.00
2023-04-05T14:25:02.088Z,10.57
2023-04-05T14:27:28.926Z,8.40
2023-04-05T14:29:59.250Z,11.65
2023-04-05T14:32:27.125Z,9.50
2023-04-05T14:34:54.417Z,8.10
2023-04-05T14:37:21.914Z,10.02
2023-04-05T14:39:48.844Z,9.30
2023-04-05T14:42:16.656Z,9.30
2023-04-05T14:44:45.355Z,7.35
2023-04-05T14:47:12.240Z,7.85
2023-04-05T14:49:41.434Z,9.07
2023-04-05T14:52:08.494Z,8.00
2023-04-05T14:54:35.477Z,6.85
2023-04-05T14:57:02.298Z,6.43
2023-04-05T14:59:32.178Z,7.65
2023-04-05T15:01:59.128Z,7.60
2023-04-05T15:04:26.850Z,7.32
2023-04-05T15:06:53.832Z,8.57
2023-04-05T15:09:20.964Z,10.07
2023-04-05T15:11:47.806Z,8.77
2023-04-05T15:14:24.881Z,6.65
2023-04-05T15:16:56.156Z,10.23
2023-04-05T15:19:22.986Z,10.98
2023-04-05T15:21:50.047Z,7.28
2023-04-05T15:24:17.718Z,9.73
2023-04-05T15:26:44.722Z,7.70
2023-04-05T15:29:11.894Z,8.77
2023-04-05T15:31:39.861Z,7.53
2023-04-05T15:34:08.349Z,9.73
2023-04-05T15:36:36.380Z,8.90
2023-04-05T15:39:05.517Z,8.95
2023-04-05T15:41:33.808Z,8.32
2023-04-05T15:44:01.420Z,10.23
2023-04-05T15:46:29.467Z,8.55
2023-04-05T15:48:56.582Z,8.75
2023-04-05T15:51:24.094Z,10.52
2023-04-05T15:53:51.761Z,9.27
2023-04-05T15:56:18.892Z,10.00
2023-04-05T15:58:45.841Z,9.50
2023-04-05T16:01:14.300Z,8.45
2023-04-05T16:03:42.584Z,8.10
2023-04-05T16:06:09.599Z,11.52
2023-04-05T16:08:36.829Z,8.68
2023-04-05T16:11:04.914Z,11.73
2023-04-05T16:13:31.924Z,10.90
2023-04-05T16:15:59.531Z,9.82
2023-04-05T16:18:28.110Z,14.75
2023-04-05T16:20:56.260Z,10.95
2023-04-05T16:23:23.287Z,11.52
2023-04-05T16:25:50.406Z,13.65
2023-04-05T16:28:17.432Z,8.40
2023-04-05T16:30:46.350Z,9.65
2023-04-05T16:33:16.592Z,10.13
2023-04-05T16:35:44.739Z,11.32
2023-04-05T16:38:11.684Z,14.07
2023-04-05T16:40:38.942Z,12.57
2023-04-05T16:43:05.932Z,15.55
2023-04-05T16:45:33.998Z,12.63
2023-04-05T16:48:01.279Z,16.25
2023-04-05T16:50:28.237Z,14.95
2023-04-05T16:52:55.106Z,12.43
2023-04-05T16:55:22.279Z,12.20
2023-04-05T16:57:49.106Z,11.65
2023-04-05T17:00:16.288Z,13.90
2023-04-05T17:02:47.609Z,19.00
2023-04-05T17:05:14.784Z,12.13
2023-04-05T17:07:41.842Z,14.05
2023-04-05T17:10:09.511Z,15.63
2023-04-05T17:12:40.916Z,12.90
2023-04-05T17:15:09.488Z,15.73
2023-04-05T17:17:36.991Z,12.38
2023-04-05T17:20:06.210Z,13.25
2023-04-05T17:22:33.490Z,12.18
2023-04-05T17:25:02.799Z,15.20
2023-04-05T17:27:29.898Z,13.43
2023-04-05T17:29:56.930Z,16.17
2023-04-05T17:32:27.079Z,11.43
2023-04-05T17:34:54.478Z,14.25
2023-04-05T17:37:21.372Z,12.27
2023-04-05T17:39:48.748Z,15.57
2023-04-05T17:42:17.453Z,12.00
2023-04-05T17:44:45.116Z,15.88
2023-04-05T17:47:12.385Z,15.27
2023-04-05T17:49:39.570Z,15.52
2023-04-05T17:52:09.673Z,15.00
2023-04-05T17:54:37.215Z,16.33
2023-04-05T17:57:07.128Z,12.30
2023-04-05T17:59:35.604Z,16.05
2023-04-05T18:02:02.658Z,10.95
2023-04-05T18:04:29.629Z,15.57
2023-04-05T18:06:56.995Z,13.07
2023-04-05T18:09:24.005Z,12.93
2023-04-05T18:11:51.499Z,13.05
2023-04-05T18:14:18.428Z,12.27
2023-04-05T18:16:45.419Z,10.07
2023-04-05T18:19:20.360Z,11.85
2023-04-05T18:21:47.543Z,14.75
2023-04-05T18:24:14.970Z,12.45
2023-04-05T18:26:42.010Z,15.23
2023-04-05T18:29:09.271Z,12.68
2023-04-05T18:31:36.578Z,15.05
2023-04-05T18:34:06.506Z,16.17
2023-04-05T18:36:33.438Z,13.07
2023-04-05T18:39:05.068Z,58.05
2023-04-05T18:41:32.404Z,47.38
2023-04-05T18:43:59.403Z,32.78
2023-04-05T18:46:27.001Z,25.08
2023-04-05T18:48:57.965Z,19.50
2023-04-05T18:51:28.923Z,18.88
2023-04-05T18:53:56.577Z,18.20
2023-04-05T18:56:23.987Z,20.98
2023-04-05T18:58:51.228Z,20.27
2023-04-05T19:01:20.239Z,22.98
2023-04-05T19:03:47.901Z,22.52
2023-04-05T19:06:15.796Z,20.27
2023-04-05T19:08:43.288Z,21.67
2023-04-05T19:11:13.704Z,19.58
2023-04-05T19:13:46.060Z,21.80
2023-04-05T19:16:16.089Z,19.23
2023-04-05T19:18:43.351Z,22.15
2023-04-05T19:21:10.515Z,22.63
2023-04-05T19:23:38.896Z,20.95
2023-04-05T19:26:05.925Z,20.05
2023-04-05T19:28:33.201Z,19.00
2023-04-05T19:31:01.389Z,19.50
2023-04-05T19:33:31.637Z,21.48
2023-04-05T19:35:58.932Z,19.40
2023-04-05T19:38:26.470Z,19.00
2023-04-05T19:40:53.856Z,19.60
2023-04-05T19:43:21.205Z,19.98
2023-04-05T19:45:52.280Z,17.58
2023-04-05T19:48:41.709Z,17.25
2023-04-05T19:51:10.527Z,17.42
2023-04-05T19:53:49.606Z,20.13
2023-04-05T19:56:22.165Z,16.30
2023-04-05T19:58:55.151Z,18.10
2023-04-05T20:04:09.482Z,17.25
2023-04-05T20:06:36.517Z,20.88
2023-04-05T20:09:06.123Z,19.90
2023-04-05T20:11:33.848Z,19.08
2023-04-05T20:14:02.708Z,16.75
2023-04-05T20:16:34.912Z,20.00
2023-04-05T20:19:09.986Z,15.98
2023-04-05T20:21:37.950Z,17.77
2023-04-05T20:24:08.585Z,20.83
2023-04-05T20:26:36.040Z,23.73
2023-04-05T20:29:07.296Z,21.23
2023-04-05T20:31:39.333Z,22.48
2023-04-05T20:34:10.164Z,18.80
2023-04-05T20:36:56.890Z,23.08
2023-04-05T20:39:23.981Z,23.15
2023-04-05T20:41:51.462Z,25.73
2023-04-05T20:44:18.897Z,21.48
2023-04-05T20:46:46.855Z,21.40
2023-04-05T20:49:13.930Z,20.85
2023-04-05T20:51:43.000Z,25.15
2023-04-05T20:54:10.522Z,20.02
2023-04-05T20:56:37.452Z,28.33
2023-04-05T20:59:07.731Z,19.73
2023-04-05T21:01:36.917Z,21.90
2023-04-05T21:04:07.332Z,22.05
2023-04-05T21:06:36.659Z,26.10
2023-04-05T21:09:03.854Z,24.92
2023-04-05T21:11:30.910Z,25.55
2023-04-05T21:13:58.646Z,26.90
2023-04-05T21:16:26.862Z,28.10
2023-04-05T21:18:53.938Z,27.55
2023-04-05T21:21:20.936Z,25.58
2023-04-05T21:23:49.278Z,29.23
2023-04-05T21:26:19.031Z,26.75
2023-04-05T21:28:46.205Z,22.25
2023-04-05T21:31:13.139Z,26.83
2023-04-05T21:33:40.357Z,26.67
2023-04-05T21:36:07.570Z,25.33
2023-04-05T21:38:35.628Z,24.48
2023-04-05T21:41:04.025Z,23.35
2023-04-05T21:43:31.109Z,17.55
2023-04-05T21:45:58.825Z,22.88
2023-04-05T21:48:28.472Z,20.95
2023-04-05T21:50:55.996Z,21.13
2023-04-05T21:53:25.552Z,22.38
2023-04-05T21:55:53.097Z,20.35
2023-04-05T21:58:20.329Z,25.15
2023-04-05T22:00:47.816Z,23.05
2023-04-05T22:03:19.376Z,19.42
2023-04-05T22:05:48.508Z,21.52
2023-04-05T22:08:15.547Z,23.25
2023-04-05T22:10:43.851Z,26.05
2023-04-05T22:13:11.452Z,22.50
2023-04-05T22:15:41.994Z,24.05
2023-04-05T22:18:12.529Z,24.55
2023-04-05T22:20:39.509Z,25.85
2023-04-05T22:23:06.991Z,26.55
2023-04-05T22:25:34.579Z,22.95
2023-04-05T22:28:06.494Z,23.52
2023-04-05T22:30:43.959Z,24.55
2023-04-05T22:33:17.947Z,25.25
2023-04-05T22:35:45.248Z,26.27
2023-04-05T22:38:13.491Z,22.95
2023-04-05T22:40:42.244Z,25.77
2023-04-05T22:43:10.258Z,25.88
2023-04-05T22:45:37.930Z,24.23
2023-04-05T22:48:07.117Z,23.73
2023-04-05T22:50:37.305Z,26.95
2023-04-05T22:53:04.381Z,28.75
2023-04-05T22:55:31.479Z,26.25
2023-04-05T22:58:01.837Z,29.42
2023-04-05T23:00:37.525Z,25.35
2023-04-05T23:03:04.937Z,25.88
2023-04-05T23:05:34.226Z,27.85
2023-04-05T23:08:01.483Z,25.38
2023-04-05T23:10:30.405Z,28.38
2023-04-05T23:12:57.766Z,28.38
2023-04-05T23:15:24.975Z,25.48
2023-04-05T23:17:52.077Z,29.08
2023-04-05T23:20:19.329Z,29.83
2023-04-05T23:22:46.641Z,30.55
2023-04-05T23:25:13.699Z,30.83
2023-04-05T23:27:40.834Z,26.92
2023-04-05T23:30:11.465Z,26.30
2023-04-05T23:32:38.798Z,29.90
2023-04-05T23:35:08.899Z,27.65
2023-04-05T23:37:36.132Z,23.08
2023-04-05T23:40:04.605Z,33.20
2023-04-05T23:42:31.600Z,31.05
2023-04-05T23:45:00.331Z,26.02
2023-04-05T23:47:27.278Z,26.02
2023-04-05T23:49:54.267Z,29.00
2023-04-05T23:52:21.395Z,30.27
2023-04-05T23:54:48.345Z,29.13
2023-04-05T23:57:15.878Z,32.63
2023-04-05T23:59:43.034Z,25.25
